Time,TemperatureF,DewpointF,PressureIn,WindDirection,WindDirectionDegrees,WindSpeedMPH,WindSpeedGustMPH,Humidity,HourlyPrecipIn,Conditions,Clouds,dailyrainin,SoftwareType,DateUTC
2013-04-19 00:03:00,36.0,34.0,-100.00,WNW,300,13.0,24.0,92,0.00,,,-99.99,,2013-04-19 05:03:00,
2013-04-19 00:11:00,36.0,34.0,-100.00,NW,305,15.0,21.0,93,0.00,,,-99.99,,2013-04-19 05:11:00,
2013-04-19 00:22:00,36.0,34.0,-100.00,NW,310,14.0,26.0,93,0.00,,,-99.99,,2013-04-19 05:22:00,
2013-04-19 00:32:00,36.0,34.0,-100.00,NW,315,16.0,24.0,92,0.00,,,-99.99,,2013-04-19 05:32:00,
2013-04-19 00:42:00,36.0,34.0,-100.00,NW,315,16.0,24.0,92,0.00,,,-99.99,,2013-04-19 05:42:00,
2013-04-19 00:52:00,36.0,33.0,-100.00,WNW,300,19.0,26.0,90,0.00,,,-99.99,,2013-04-19 05:52:00,
2013-04-19 01:01:00,36.0,33.0,-100.00,WNW,300,19.0,26.0,90,0.00,,,-99.99,,2013-04-19 06:01:00,
2013-04-19 01:11:00,36.0,33.0,-100.00,NW,315,13.0,24.0,90,0.00,,,-99.99,,2013-04-19 06:11:00,
2013-04-19 01:22:00,36.0,32.0,-100.00,WNW,300,15.0,27.0,87,0.00,,,-99.99,,2013-04-19 06:22:00,
2013-04-19 01:32:00,35.0,32.0,-100.00,WNW,300,21.0,26.0,88,0.00,,,-99.99,,2013-04-19 06:32:00,
2013-04-19 01:42:00,35.0,32.0,-100.00,WNW,300,21.0,26.0,88,0.00,,,-99.99,,2013-04-19 06:42:00,
2013-04-19 01:52:00,35.0,33.0,-100.00,WNW,295,15.0,27.0,90,0.00,,,-99.99,,2013-04-19 06:52:00,
2013-04-19 02:02:00,35.0,33.0,-100.00,WNW,295,15.0,27.0,90,0.00,,,-99.99,,2013-04-19 07:02:00,
2013-04-19 02:12:00,35.0,33.0,-100.00,WNW,295,13.0,22.0,91,0.00,,,-99.99,,2013-04-19 07:12:00,
2013-04-19 02:21:00,35.0,33.0,-100.00,NW,305,13.0,27.0,90,0.00,,,-99.99,,2013-04-19 07:21:00,
2013-04-19 02:32:00,35.0,33.0,-100.00,WNW,295,13.0,21.0,91,0.00,,,-99.99,,2013-04-19 07:32:00,
2013-04-19 02:42:00,35.0,33.0,-100.00,WNW,295,13.0,21.0,91,0.00,,,-99.99,,2013-04-19 07:42:00,
2013-04-19 02:52:00,35.0,33.0,-100.00,WNW,295,13.0,23.0,91,0.00,,,-99.99,,2013-04-19 07:52:00,
2013-04-19 03:02:00,35.0,33.0,-100.00,WNW,295,13.0,23.0,91,0.00,,,-99.99,,2013-04-19 08:02:00,
2013-04-19 03:12:00,35.0,32.0,-100.00,WNW,295,14.0,24.0,89,0.00,,,-99.99,,2013-04-19 08:12:00,
2013-04-19 03:21:00,35.0,32.0,-100.00,NW,305,15.0,27.0,88,0.00,,,-99.99,,2013-04-19 08:21:00,
2013-04-19 03:32:00,35.0,31.0,-100.00,NW,305,17.0,27.0,85,0.00,,,-99.99,,2013-04-19 08:32:00,
2013-04-19 03:42:00,35.0,31.0,-100.00,NW,305,17.0,27.0,85,0.00,,,-99.99,,2013-04-19 08:42:00,
2013-04-19 03:52:00,35.0,31.0,-100.00,NW,315,19.0,26.0,84,0.00,,,-99.99,,2013-04-19 08:52:00,
2013-04-19 04:01:00,35.0,31.0,-100.00,NW,315,19.0,26.0,84,0.00,,,-99.99,,2013-04-19 09:01:00,
2013-04-19 04:11:00,35.0,31.0,-100.00,NW,310,15.0,24.0,85,0.00,,,-99.99,,2013-04-19 09:11:00,
2013-04-19 04:21:00,35.0,30.0,-100.00,NW,310,19.0,30.0,80,0.00,,,-99.99,,2013-04-19 09:21:00,
2013-04-19 04:32:00,35.0,30.0,-100.00,NW,315,17.0,31.0,83,0.00,,,-99.99,,2013-04-19 09:32:00,
2013-04-19 04:42:00,35.0,30.0,-100.00,NW,315,17.0,31.0,83,0.00,,,-99.99,,2013-04-19 09:42:00,
2013-04-19 04:52:00,35.0,30.0,-100.00,WNW,300,19.0,29.0,84,0.00,,,-99.99,,2013-04-19 09:52:00,
2013-04-19 05:02:00,35.0,30.0,-100.00,WNW,300,19.0,29.0,84,0.00,,,-99.99,,2013-04-19 10:02:00,
2013-04-19 05:13:00,35.0,29.0,-100.00,NW,305,21.0,29.0,81,0.00,,,-99.99,,2013-04-19 10:13:00,
2013-04-19 05:23:00,34.0,30.0,-100.00,NW,305,15.0,30.0,83,0.00,,,-99.99,,2013-04-19 10:23:00,
2013-04-19 05:33:00,34.0,29.0,-100.00,WNW,300,14.0,24.0,82,0.00,,,-99.99,,2013-04-19 10:33:00,
2013-04-19 05:42:00,34.0,29.0,-100.00,WNW,300,14.0,24.0,82,0.00,,,-99.99,,2013-04-19 10:42:00,
2013-04-19 05:52:00,34.0,30.0,-100.00,NW,305,20.0,29.0,86,0.00,,,-99.99,,2013-04-19 10:52:00,
2013-04-19 06:02:00,34.0,30.0,-100.00,NW,305,20.0,29.0,86,0.00,,,-99.99,,2013-04-19 11:02:00,
2013-04-19 06:11:00,34.0,30.0,-100.00,NW,305,20.0,27.0,86,0.00,,,-99.99,,2013-04-19 11:11:00,
2013-04-19 06:22:00,34.0,31.0,-100.00,WNW,300,14.0,26.0,88,0.00,,,-99.99,,2013-04-19 11:22:00,
2013-04-19 06:32:00,33.0,30.0,-100.00,NW,305,16.0,27.0,87,0.00,,,-99.99,,2013-04-19 11:32:00,
2013-04-19 06:42:00,33.0,30.0,-100.00,NW,305,16.0,27.0,87,0.00,,,-99.99,,2013-04-19 11:42:00,
2013-04-19 06:52:00,33.0,29.0,-100.00,NW,305,19.0,30.0,85,0.00,,,-99.99,,2013-04-19 11:52:00,
2013-04-19 07:02:00,33.0,29.0,-100.00,NW,305,19.0,30.0,85,0.00,,,-99.99,,2013-04-19 12:02:00,
2013-04-19 07:12:00,33.0,29.0,-100.00,NW,305,16.0,26.0,85,0.00,,,-99.99,,2013-04-19 12:12:00,
2013-04-19 07:22:00,33.0,29.0,-100.00,WNW,300,17.0,28.0,84,0.00,,,-99.99,,2013-04-19 12:22:00,
2013-04-19 07:32:00,33.0,29.0,-100.00,WNW,295,19.0,29.0,83,0.00,,,-99.99,,2013-04-19 12:32:00,
2013-04-19 07:42:00,33.0,29.0,-100.00,WNW,295,19.0,29.0,83,0.00,,,-99.99,,2013-04-19 12:42:00,
2013-04-19 07:52:00,33.0,29.0,-100.00,NW,315,16.0,26.0,84,0.00,,,-99.99,,2013-04-19 12:52:00,
2013-04-19 08:01:00,33.0,29.0,-100.00,NW,315,16.0,26.0,84,0.00,,,-99.99,,2013-04-19 13:01:00,
2013-04-19 08:11:00,33.0,28.0,-100.00,NW,310,22.0,32.0,82,0.00,,,-99.99,,2013-04-19 13:11:00,
2013-04-19 08:21:00,33.0,28.0,-100.00,WNW,300,18.0,26.0,81,0.00,,,-99.99,,2013-04-19 13:21:00,
2013-04-19 08:32:00,33.0,28.0,-100.00,NW,305,16.0,32.0,81,0.00,,,-99.99,,2013-04-19 13:32:00,
2013-04-19 08:42:00,33.0,28.0,-100.00,NW,305,16.0,32.0,81,0.00,,,-99.99,,2013-04-19 13:42:00,
2013-04-19 08:52:00,33.0,27.0,-100.00,WNW,295,21.0,31.0,79,0.00,,,-99.99,,2013-04-19 13:52:00,
2013-04-19 09:01:00,33.0,27.0,-100.00,WNW,295,21.0,31.0,79,0.00,,,-99.99,,2013-04-19 14:01:00,
2013-04-19 09:11:00,33.0,28.0,-100.00,WNW,300,19.0,29.0,80,0.00,,,-99.99,,2013-04-19 14:11:00,
2013-04-19 09:21:00,34.0,28.0,-100.00,WNW,290,20.0,26.0,78,0.00,,,-99.99,,2013-04-19 14:21:00,
2013-04-19 09:32:00,34.0,28.0,-100.00,NW,305,17.0,30.0,77,0.00,,,-99.99,,2013-04-19 14:32:00,
2013-04-19 09:42:00,34.0,28.0,-100.00,NW,305,17.0,30.0,77,0.00,,,-99.99,,2013-04-19 14:42:00,
2013-04-19 09:52:00,35.0,29.0,-100.00,NW,305,19.0,30.0,76,0.00,,,-99.99,,2013-04-19 14:52:00,
2013-04-19 10:01:00,35.0,29.0,-100.00,NW,305,19.0,30.0,76,0.00,,,-99.99,,2013-04-19 15:01:00,
2013-04-19 10:12:00,36.0,29.0,-100.00,NW,305,19.0,32.0,77,0.00,,,-99.99,,2013-04-19 15:12:00,
2013-04-19 10:21:00,36.0,29.0,-100.00,NW,310,18.0,30.0,76,0.00,,,-99.99,,2013-04-19 15:21:00,
2013-04-19 10:33:00,37.0,30.0,-100.00,NW,310,23.0,32.0,74,0.00,,,-99.99,,2013-04-19 15:33:00,
2013-04-19 10:43:00,37.0,30.0,-100.00,NW,310,23.0,32.0,74,0.00,,,-99.99,,2013-04-19 15:43:00,
2013-04-19 10:52:00,36.0,28.0,-100.00,NW,305,21.0,33.0,72,0.00,,,-99.99,,2013-04-19 15:52:00,
2013-04-19 11:03:00,36.0,28.0,-100.00,NW,305,21.0,33.0,72,0.00,,,-99.99,,2013-04-19 16:03:00,
2013-04-19 11:12:00,38.0,31.0,-100.00,NW,320,19.0,30.0,73,0.00,,,-99.99,,2013-04-19 16:12:00,
2013-04-19 11:23:00,38.0,29.0,-100.00,NW,310,21.0,32.0,70,0.00,,,-99.99,,2013-04-19 16:23:00,
2013-04-19 11:32:00,38.0,29.0,-100.00,NW,305,19.0,32.0,71,0.00,,,-99.99,,2013-04-19 16:32:00,
2013-04-19 11:42:00,38.0,29.0,-100.00,NW,305,19.0,32.0,71,0.00,,,-99.99,,2013-04-19 16:42:00,
2013-04-19 11:52:00,39.0,31.0,-100.00,WNW,300,20.0,28.0,70,0.00,,,-99.99,,2013-04-19 16:52:00,
2013-04-19 12:02:00,39.0,31.0,-100.00,WNW,300,20.0,28.0,70,0.00,,,-99.99,,2013-04-19 17:02:00,
2013-04-19 12:12:00,39.0,29.0,-100.00,WNW,300,21.0,36.0,68,0.00,,,-99.99,,2013-04-19 17:12:00,
2013-04-19 12:21:00,39.0,29.0,-100.00,NW,315,26.0,31.0,68,0.00,,,-99.99,,2013-04-19 17:21:00,
2013-04-19 12:33:00,40.0,30.0,-100.00,NW,310,20.0,31.0,67,0.00,,,-99.99,,2013-04-19 17:33:00,
2013-04-19 12:42:00,40.0,30.0,-100.00,NW,310,20.0,31.0,67,0.00,,,-99.99,,2013-04-19 17:42:00,
2013-04-19 12:52:00,41.0,29.0,-100.00,NW,320,22.0,30.0,62,0.00,,,-99.99,,2013-04-19 17:52:00,
2013-04-19 13:02:00,41.0,29.0,-100.00,NW,320,22.0,30.0,62,0.00,,,-99.99,,2013-04-19 18:02:00,
2013-04-19 13:13:00,41.0,30.0,-100.00,NNW,330,18.0,31.0,63,0.00,,,-99.99,,2013-04-19 18:13:00,
2013-04-19 13:22:00,40.0,29.0,-100.00,NW,310,24.0,33.0,62,0.00,,,-99.99,,2013-04-19 18:22:00,
2013-04-19 13:33:00,41.0,30.0,-100.00,NNW,330,17.0,34.0,63,0.00,,,-99.99,,2013-04-19 18:33:00,
2013-04-19 13:42:00,41.0,30.0,-100.00,NNW,330,17.0,34.0,63,0.00,,,-99.99,,2013-04-19 18:42:00,
2013-04-19 13:52:00,42.0,30.0,-100.00,NNW,330,13.0,26.0,61,0.00,,,-99.99,,2013-04-19 18:52:00,
2013-04-19 14:01:00,42.0,30.0,-100.00,NNW,330,13.0,26.0,61,0.00,,,-99.99,,2013-04-19 19:01:00,
2013-04-19 14:11:00,42.0,29.0,-100.00,NW,305,22.0,32.0,60,0.00,,,-99.99,,2013-04-19 19:11:00,
2013-04-19 14:21:00,42.0,29.0,-100.00,NW,315,22.0,36.0,60,0.00,,,-99.99,,2013-04-19 19:21:00,
2013-04-19 14:32:00,42.0,28.0,-100.00,NNW,330,19.0,31.0,57,0.00,,,-99.99,,2013-04-19 19:32:00,
2013-04-19 14:41:00,42.0,28.0,-100.00,NNW,330,19.0,31.0,57,0.00,,,-99.99,,2013-04-19 19:41:00,
2013-04-19 14:52:00,42.0,28.0,-100.00,NW,310,23.0,33.0,55,0.00,,,-99.99,,2013-04-19 19:52:00,
2013-04-19 15:02:00,42.0,28.0,-100.00,NW,310,23.0,33.0,55,0.00,,,-99.99,,2013-04-19 20:02:00,
2013-04-19 15:11:00,42.0,28.0,-100.00,NNW,330,19.0,29.0,58,0.00,,,-99.99,,2013-04-19 20:11:00,
2013-04-19 15:22:00,43.0,27.0,-100.00,NW,315,24.0,31.0,53,0.00,,,-99.99,,2013-04-19 20:22:00,
2013-04-19 15:32:00,43.0,28.0,-100.00,NNW,330,16.0,33.0,54,0.00,,,-99.99,,2013-04-19 20:32:00,
2013-04-19 15:41:00,43.0,28.0,-100.00,NNW,330,16.0,33.0,54,0.00,,,-99.99,,2013-04-19 20:41:00,
2013-04-19 15:51:00,43.0,28.0,-100.00,NNW,330,17.0,30.0,54,0.00,,,-99.99,,2013-04-19 20:51:00,
2013-04-19 16:01:00,43.0,28.0,-100.00,NNW,330,17.0,30.0,54,0.00,,,-99.99,,2013-04-19 21:01:00,
2013-04-19 16:11:00,43.0,26.0,-100.00,NW,310,23.0,32.0,50,0.00,,,-99.99,,2013-04-19 21:11:00,
2013-04-19 16:21:00,43.0,26.0,-100.00,NW,315,19.0,34.0,50,0.00,,,-99.99,,2013-04-19 21:21:00,
2013-04-19 16:32:00,43.0,27.0,-100.00,NW,325,17.0,34.0,52,0.00,,,-99.99,,2013-04-19 21:32:00,
2013-04-19 16:42:00,43.0,27.0,-100.00,NW,325,17.0,34.0,52,0.00,,,-99.99,,2013-04-19 21:42:00,
2013-04-19 16:52:00,43.0,26.0,-100.00,NNW,330,17.0,29.0,50,0.00,,,-99.99,,2013-04-19 21:52:00,
2013-04-19 17:02:00,43.0,26.0,-100.00,NNW,330,17.0,29.0,50,0.00,,,-99.99,,2013-04-19 22:02:00,
2013-04-19 17:12:00,43.0,25.0,-100.00,NNW,330,20.0,30.0,48,0.00,,,-99.99,,2013-04-19 22:12:00,
2013-04-19 17:22:00,43.0,26.0,-100.00,NW,325,16.0,31.0,48,0.00,,,-99.99,,2013-04-19 22:22:00,
2013-04-19 17:33:00,43.0,27.0,-100.00,NW,325,17.0,32.0,51,0.00,,,-99.99,,2013-04-19 22:33:00,
2013-04-19 17:42:00,43.0,27.0,-100.00,NW,325,17.0,32.0,51,0.00,,,-99.99,,2013-04-19 22:42:00,
2013-04-19 17:52:00,43.0,27.0,-100.00,NNW,340,18.0,27.0,51,0.00,,,-99.99,,2013-04-19 22:52:00,
2013-04-19 18:02:00,43.0,27.0,-100.00,NNW,340,18.0,27.0,51,0.00,,,-99.99,,2013-04-19 23:02:00,
2013-04-19 18:11:00,43.0,25.0,-100.00,NW,325,17.0,26.0,49,0.00,,,-99.99,,2013-04-19 23:11:00,
2013-04-19 18:22:00,43.0,26.0,-100.00,NW,325,18.0,29.0,49,0.00,,,-99.99,,2013-04-19 23:22:00,
2013-04-19 18:32:00,44.0,27.0,-100.00,NW,315,16.0,25.0,51,0.00,,,-99.99,,2013-04-19 23:32:00,
2013-04-19 18:42:00,44.0,26.0,-100.00,NNW,330,16.0,22.0,50,0.00,,,-99.99,,2013-04-19 23:42:00,
2013-04-19 18:52:00,42.0,27.0,-100.00,NNW,340,16.0,24.0,54,0.00,,,-99.99,,2013-04-19 23:52:00,
2013-04-19 19:02:00,42.0,27.0,-100.00,NNW,340,16.0,24.0,54,0.00,,,-99.99,,2013-04-20 00:02:00,
2013-04-19 19:12:00,42.0,27.0,-100.00,NNW,335,12.0,21.0,56,0.00,,,-99.99,,2013-04-20 00:12:00,
2013-04-19 19:21:00,42.0,28.0,-100.00,NW,325,12.0,23.0,57,0.00,,,-99.99,,2013-04-20 00:21:00,
2013-04-19 19:32:00,41.0,28.0,-100.00,NNW,330,12.0,20.0,58,0.00,,,-99.99,,2013-04-20 00:32:00,
2013-04-19 19:41:00,41.0,28.0,-100.00,NNW,330,12.0,20.0,58,0.00,,,-99.99,,2013-04-20 00:41:00,
2013-04-19 19:51:00,40.0,28.0,-100.00,NNW,340,9.0,19.0,60,0.00,,,-99.99,,2013-04-20 00:51:00,
2013-04-19 20:01:00,40.0,28.0,-100.00,NNW,340,9.0,19.0,60,0.00,,,-99.99,,2013-04-20 01:01:00,
2013-04-19 20:11:00,40.0,29.0,-100.00,NNW,340,9.0,16.0,63,0.00,,,-99.99,,2013-04-20 01:11:00,
2013-04-19 20:21:00,39.0,28.0,-100.00,NNW,330,7.0,17.0,63,0.00,,,-99.99,,2013-04-20 01:21:00,
2013-04-19 20:32:00,39.0,28.0,-100.00,NNW,335,9.0,16.0,65,0.00,,,-99.99,,2013-04-20 01:32:00,
2013-04-19 20:42:00,39.0,28.0,-100.00,NNW,335,9.0,16.0,65,0.00,,,-99.99,,2013-04-20 01:42:00,
2013-04-19 20:52:00,38.0,28.0,-100.00,NNW,340,9.0,13.0,67,0.00,,,-99.99,,2013-04-20 01:52:00,
2013-04-19 21:01:00,38.0,28.0,-100.00,NNW,340,9.0,13.0,67,0.00,,,-99.99,,2013-04-20 02:01:00,
2013-04-19 21:11:00,37.0,29.0,-100.00,NNW,340,9.0,13.0,70,0.00,,,-99.99,,2013-04-20 02:11:00,
2013-04-19 21:21:00,37.0,29.0,-100.00,NNW,340,7.0,13.0,70,0.00,,,-99.99,,2013-04-20 02:21:00,
2013-04-19 21:32:00,37.0,29.0,-100.00,NNW,345,6.0,11.0,75,0.00,,,-99.99,,2013-04-20 02:32:00,
2013-04-19 21:42:00,37.0,29.0,-100.00,NNW,345,6.0,11.0,75,0.00,,,-99.99,,2013-04-20 02:42:00,
2013-04-19 21:52:00,36.0,29.0,-100.00,NNW,340,7.0,11.0,75,0.00,,,-99.99,,2013-04-20 02:52:00,
2013-04-19 22:01:00,36.0,29.0,-100.00,NNW,340,7.0,11.0,75,0.00,,,-99.99,,2013-04-20 03:01:00,
2013-04-19 22:11:00,36.0,29.0,-100.00,NNW,345,7.0,11.0,75,0.00,,,-99.99,,2013-04-20 03:11:00,
2013-04-19 22:21:00,36.0,29.0,-100.00,North,350,6.0,10.0,75,0.00,,,-99.99,,2013-04-20 03:21:00,
2013-04-19 22:33:00,35.0,29.0,-100.00,NNW,335,6.0,10.0,78,0.00,,,-99.99,,2013-04-20 03:33:00,
2013-04-19 22:43:00,35.0,29.0,-100.00,NNW,335,6.0,10.0,78,0.00,,,-99.99,,2013-04-20 03:43:00,
2013-04-19 22:52:00,35.0,27.0,-100.00,NNW,335,9.0,16.0,73,0.00,,,-99.99,,2013-04-20 03:52:00,
2013-04-19 23:03:00,35.0,27.0,-100.00,NNW,335,9.0,16.0,73,0.00,,,-99.99,,2013-04-20 04:03:00,
2013-04-19 23:12:00,35.0,27.0,-100.00,NNW,335,9.0,15.0,73,0.00,,,-99.99,,2013-04-20 04:12:00,
2013-04-19 23:23:00,35.0,27.0,-100.00,NNW,335,7.0,13.0,73,0.00,,,-99.99,,2013-04-20 04:23:00,
2013-04-19 23:32:00,34.0,27.0,-100.00,NNW,330,6.0,8.0,75,0.00,,,-99.99,,2013-04-20 04:32:00,
2013-04-19 23:42:00,34.0,27.0,-100.00,NNW,330,6.0,8.0,75,0.00,,,-99.99,,2013-04-20 04:42:00,
2013-04-19 23:52:00,33.0,27.0,-100.00,NW,325,4.0,7.0,76,0.00,,,-99.99,,2013-04-20 04:52:00,